createdAt,value
2023-02-14T00:01:44.409Z,3.63
2023-02-14T00:04:12.881Z,3.30
2023-02-14T00:06:42.207Z,3.40
2023-02-14T00:09:15.161Z,3.00
2023-02-14T00:11:44.437Z,3.07
2023-02-14T00:14:31.813Z,3.17
2023-02-14T00:17:01.720Z,3.27
2023-02-14T00:19:31.493Z,3.80
2023-02-14T00:21:59.900Z,3.57
2023-02-14T00:24:28.453Z,3.57
2023-02-14T00:26:56.574Z,3.30
2023-02-14T00:29:27.987Z,3.30
2023-02-14T00:31:56.228Z,3.33
2023-02-14T00:34:27.206Z,3.60
2023-02-14T00:36:55.375Z,4.07
2023-02-14T00:39:23.635Z,4.40
2023-02-14T00:41:51.854Z,4.07
2023-02-14T00:44:20.038Z,4.50
2023-02-14T00:46:48.267Z,3.77
2023-02-14T00:49:16.780Z,4.60
2023-02-14T00:51:46.392Z,4.97
2023-02-14T00:54:14.766Z,5.07
2023-02-14T00:56:43.025Z,5.60
2023-02-14T00:59:11.228Z,5.43
2023-02-14T01:01:39.917Z,5.63
2023-02-14T01:04:08.732Z,5.33
2023-02-14T01:06:37.353Z,6.13
2023-02-14T01:09:06.954Z,6.03
2023-02-14T01:11:35.311Z,6.37
2023-02-14T01:14:03.910Z,5.97
2023-02-14T01:16:32.546Z,6.07
2023-02-14T01:19:02.168Z,6.17
2023-02-14T01:21:33.992Z,6.27
2023-02-14T01:24:04.646Z,5.30
2023-02-14T01:26:35.901Z,5.83
2023-02-14T01:29:05.636Z,4.67
2023-02-14T01:31:36.362Z,4.67
2023-02-14T01:34:05.166Z,4.93
2023-02-14T01:36:37.816Z,5.40
2023-02-14T01:39:09.949Z,5.03
2023-02-14T01:41:42.443Z,4.90
2023-02-14T01:44:58.310Z,5.30
2023-02-14T01:47:29.732Z,5.17
2023-02-14T01:50:03.986Z,4.97
2023-02-14T01:52:38.963Z,4.47
2023-02-14T01:55:16.294Z,4.63
2023-02-14T01:57:51.127Z,5.70
2023-02-14T02:00:39.624Z,5.17
2023-02-14T02:03:09.896Z,5.27
2023-02-14T02:05:45.804Z,5.93
2023-02-14T02:08:14.677Z,5.20
2023-02-14T02:10:42.920Z,5.60
2023-02-14T02:13:19.705Z,4.27
2023-02-14T02:16:04.165Z,4.53
2023-02-14T02:18:46.816Z,4.70
2023-02-14T02:21:58.423Z,4.47
2023-02-14T02:24:40.298Z,4.53
2023-02-14T02:27:29.796Z,4.90
2023-02-14T02:30:44.755Z,4.20
2023-02-14T02:34:02.393Z,4.17
2023-02-14T02:36:52.720Z,4.27
2023-02-14T02:39:38.934Z,4.73
2023-02-14T02:42:17.397Z,4.10
2023-02-14T02:44:58.122Z,4.40
2023-02-14T02:47:34.981Z,4.20
2023-02-14T02:50:36.883Z,4.83
2023-02-14T02:53:17.666Z,4.67
2023-02-14T02:56:10.946Z,4.13
2023-02-14T02:58:46.262Z,4.37
2023-02-14T03:01:21.762Z,3.83
2023-02-14T03:04:17.042Z,4.07
2023-02-14T03:06:45.923Z,4.63
2023-02-14T03:10:00.252Z,4.17
2023-02-14T03:13:19.174Z,4.53
2023-02-14T03:16:24.847Z,4.13
2023-02-14T03:19:34.855Z,4.40
2023-02-14T03:22:19.245Z,4.63
2023-02-14T03:24:57.155Z,4.47
2023-02-14T03:27:33.690Z,4.40
2023-02-14T03:30:15.692Z,4.83
2023-02-14T03:32:52.024Z,4.33
2023-02-14T03:35:27.185Z,4.93
2023-02-14T03:38:04.913Z,4.23
2023-02-14T03:40:38.916Z,4.60
2023-02-14T03:43:13.236Z,4.27
2023-02-14T03:45:51.509Z,4.70
2023-02-14T03:48:24.802Z,4.47
2023-02-14T03:50:54.937Z,4.83
2023-02-14T03:53:27.542Z,4.50
2023-02-14T03:56:03.996Z,4.33
2023-02-14T03:58:39.954Z,4.87
2023-02-14T04:01:15.730Z,5.03
2023-02-14T04:03:45.631Z,4.90
2023-02-14T04:06:13.881Z,4.30
2023-02-14T04:08:42.011Z,5.23
2023-02-14T04:11:10.217Z,4.30
2023-02-14T04:13:40.304Z,4.63
2023-02-14T04:16:09.578Z,5.03
2023-02-14T04:18:55.138Z,4.73
2023-02-14T04:21:23.318Z,5.07
2023-02-14T04:23:51.502Z,4.00
2023-02-14T04:26:19.673Z,4.10
2023-02-14T04:28:49.178Z,4.10
2023-02-14T04:31:17.440Z,4.90
2023-02-14T04:33:46.116Z,4.53
2023-02-14T04:36:14.602Z,4.37
2023-02-14T04:38:42.734Z,4.63
2023-02-14T04:41:10.945Z,4.57
2023-02-14T04:43:39.096Z,4.80
2023-02-14T04:46:08.639Z,3.87
2023-02-14T04:48:36.772Z,3.87
2023-02-14T04:51:06.748Z,4.73
2023-02-14T04:53:40.073Z,4.10
2023-02-14T04:56:09.146Z,4.33
2023-02-14T04:58:37.446Z,4.23
2023-02-14T05:01:05.693Z,4.30
2023-02-14T05:03:35.293Z,4.40
2023-02-14T05:06:03.456Z,3.93
2023-02-14T05:08:31.658Z,4.67
2023-02-14T05:11:00.059Z,4.17
2023-02-14T05:13:28.540Z,4.20
2023-02-14T05:15:56.842Z,4.67
2023-02-14T05:18:25.285Z,4.37
2023-02-14T05:20:56.149Z,4.40
2023-02-14T05:23:24.496Z,4.23
2023-02-14T05:25:53.615Z,4.63
2023-02-14T05:28:22.031Z,4.50
2023-02-14T05:30:52.501Z,4.70
2023-02-14T05:33:22.700Z,4.67
2023-02-14T05:35:50.978Z,4.87
2023-02-14T05:38:20.958Z,4.07
2023-02-14T05:40:49.203Z,4.50
2023-02-14T05:43:17.407Z,4.13
2023-02-14T05:45:45.911Z,4.43
2023-02-14T05:48:14.398Z,3.93
2023-02-14T05:50:45.533Z,5.03
2023-02-14T05:53:17.087Z,4.33
2023-02-14T05:55:46.854Z,4.03
2023-02-14T05:58:15.582Z,4.53
2023-02-14T06:00:44.401Z,4.80
2023-02-14T06:03:12.749Z,4.53
2023-02-14T06:05:41.301Z,4.53
2023-02-14T06:08:09.531Z,4.83
2023-02-14T06:10:37.679Z,4.20
2023-02-14T06:13:08.774Z,4.10
2023-02-14T06:15:37.558Z,3.93
2023-02-14T06:18:07.063Z,3.97
2023-02-14T06:20:36.036Z,3.87
2023-02-14T06:23:04.881Z,3.60
2023-02-14T06:25:33.434Z,4.33
2023-02-14T06:28:01.941Z,4.80
2023-02-14T06:30:31.857Z,4.30
2023-02-14T06:33:00.254Z,3.80
2023-02-14T06:35:28.502Z,4.23
2023-02-14T06:37:56.765Z,3.97
2023-02-14T06:40:25.228Z,4.10
2023-02-14T06:42:53.808Z,4.77
2023-02-14T06:45:22.093Z,3.33
2023-02-14T06:47:51.754Z,4.43
2023-02-14T06:50:20.189Z,4.80
2023-02-14T06:52:48.449Z,4.70
2023-02-14T06:55:16.956Z,5.07
2023-02-14T06:57:47.134Z,4.50
2023-02-14T07:00:16.349Z,4.10
2023-02-14T07:02:44.623Z,4.73
2023-02-14T07:05:15.225Z,4.43
2023-02-14T07:07:43.322Z,5.20
2023-02-14T07:10:12.532Z,4.23
2023-02-14T07:12:40.806Z,4.03
2023-02-14T07:15:11.924Z,3.97
2023-02-14T07:17:40.685Z,3.77
2023-02-14T07:20:11.069Z,4.70
2023-02-14T07:22:41.056Z,4.47
2023-02-14T07:25:09.808Z,4.40
2023-02-14T07:27:38.447Z,4.47
2023-02-14T07:30:09.247Z,4.33
2023-02-14T07:32:39.134Z,4.57
2023-02-14T07:35:08.722Z,4.77
2023-02-14T07:37:37.306Z,4.57
2023-02-14T07:40:14.597Z,4.57
2023-02-14T07:42:44.780Z,4.80
2023-02-14T07:45:21.747Z,4.37
2023-02-14T07:47:52.424Z,5.30
2023-02-14T07:50:21.645Z,4.77
2023-02-14T07:52:50.137Z,4.90
2023-02-14T07:55:20.287Z,4.53
2023-02-14T07:57:49.378Z,4.77
2023-02-14T08:00:19.150Z,4.70
2023-02-14T08:02:47.440Z,5.07
2023-02-14T08:05:15.829Z,4.60
2023-02-14T08:07:44.293Z,5.10
2023-02-14T08:10:13.220Z,5.00
2023-02-14T08:12:56.904Z,5.30
2023-02-14T08:15:42.795Z,5.00
2023-02-14T08:18:11.032Z,5.43
2023-02-14T08:20:39.250Z,5.77
2023-02-14T08:23:07.666Z,6.40
2023-02-14T08:25:35.944Z,5.53
2023-02-14T08:28:06.196Z,5.30
2023-02-14T08:30:36.962Z,5.27
2023-02-14T08:33:05.434Z,5.33
2023-02-14T08:35:34.134Z,6.00
2023-02-14T08:38:02.634Z,5.43
2023-02-14T08:40:31.322Z,6.13
2023-02-14T08:42:59.561Z,5.43
2023-02-14T08:45:29.260Z,5.80
2023-02-14T08:48:03.051Z,6.17
2023-02-14T08:50:31.540Z,6.20
2023-02-14T08:53:00.167Z,6.97
2023-02-14T08:55:28.790Z,6.63
2023-02-14T08:57:58.138Z,6.13
2023-02-14T09:00:28.353Z,6.57
2023-02-14T09:02:56.729Z,5.37
2023-02-14T09:05:25.081Z,5.33
2023-02-14T09:07:53.670Z,5.27
2023-02-14T09:10:22.117Z,5.60
2023-02-14T09:12:50.491Z,5.30
2023-02-14T09:15:19.076Z,6.07
2023-02-14T09:17:50.983Z,5.80
2023-02-14T09:20:19.278Z,6.00
2023-02-14T09:22:48.909Z,5.50
2023-02-14T09:25:17.657Z,5.67
2023-02-14T09:27:45.832Z,5.63
2023-02-14T09:30:15.736Z,5.73
2023-02-14T09:32:44.044Z,5.77
2023-02-14T09:35:13.738Z,5.17
2023-02-14T09:37:41.554Z,5.57
2023-02-14T09:40:14.590Z,5.73
2023-02-14T09:42:55.285Z,5.83
2023-02-14T09:45:27.607Z,6.17
2023-02-14T09:48:01.903Z,5.57
2023-02-14T09:50:37.710Z,5.93
2023-02-14T09:53:19.589Z,5.80
2023-02-14T09:56:00.939Z,5.90
2023-02-14T09:58:36.847Z,5.93
2023-02-14T10:01:20.221Z,5.97
2023-02-14T10:04:19.107Z,5.67
2023-02-14T10:06:54.789Z,5.20
2023-02-14T10:09:47.086Z,5.70
2023-02-14T10:12:23.842Z,5.38
2023-02-14T10:14:56.335Z,5.72
2023-02-14T10:17:39.925Z,5.95
2023-02-14T10:20:21.902Z,5.80
2023-02-14T10:23:04.382Z,5.45
2023-02-14T10:25:43.729Z,5.38
2023-02-14T10:28:16.890Z,5.25
2023-02-14T10:30:58.726Z,3.90
2023-02-14T10:33:33.264Z,4.45
2023-02-14T10:36:09.652Z,4.53
2023-02-14T10:38:47.540Z,4.85
2023-02-14T10:41:38.735Z,4.70
2023-02-14T10:44:28.458Z,5.22
2023-02-14T10:47:05.535Z,4.22
2023-02-14T10:49:47.754Z,4.75
2023-02-14T10:52:25.399Z,4.57
2023-02-14T10:54:59.004Z,4.72
2023-02-14T10:57:33.131Z,4.82
2023-02-14T11:00:10.909Z,4.30
2023-02-14T11:02:43.829Z,4.93
2023-02-14T11:05:26.946Z,4.88
2023-02-14T11:07:56.384Z,4.85
2023-02-14T11:10:30.968Z,4.47
2023-02-14T11:12:59.672Z,4.20
2023-02-14T11:15:33.306Z,4.57
2023-02-14T11:18:23.242Z,4.80
2023-02-14T11:21:06.535Z,4.78
2023-02-14T11:23:38.983Z,4.97
2023-02-14T11:26:17.668Z,5.20
2023-02-14T11:28:57.349Z,4.47
2023-02-14T11:31:33.243Z,4.60
2023-02-14T11:34:06.274Z,4.72
2023-02-14T11:36:43.054Z,4.72
2023-02-14T11:39:30.408Z,4.82
2023-02-14T11:42:04.103Z,5.13
2023-02-14T11:44:37.275Z,4.85
2023-02-14T11:47:25.652Z,4.85
2023-02-14T11:50:01.042Z,5.25
2023-02-14T11:52:31.417Z,5.00
2023-02-14T11:55:00.513Z,4.53
2023-02-14T11:57:35.201Z,4.18
2023-02-14T12:00:15.647Z,4.80
2023-02-14T12:02:47.523Z,4.88
2023-02-14T12:05:22.533Z,5.45
2023-02-14T12:07:53.749Z,5.38
2023-02-14T12:10:27.741Z,4.90
2023-02-14T12:13:23.596Z,4.95
2023-02-14T12:15:55.832Z,4.22
2023-02-14T12:18:47.455Z,5.30
2023-02-14T12:21:37.751Z,5.00
2023-02-14T12:24:19.040Z,4.65
2023-02-14T12:27:01.817Z,5.05
2023-02-14T12:29:38.615Z,5.32
2023-02-14T12:32:21.508Z,4.80
2023-02-14T12:34:51.588Z,5.00
2023-02-14T12:37:40.676Z,4.78
2023-02-14T12:40:21.341Z,5.13
2023-02-14T12:43:17.915Z,5.80
2023-02-14T12:46:19.208Z,4.88
2023-02-14T12:49:09.324Z,5.35
2023-02-14T12:51:50.455Z,4.90
2023-02-14T12:54:44.284Z,5.40
2023-02-14T12:57:30.544Z,5.30
2023-02-14T13:00:17.668Z,5.22
2023-02-14T13:03:34.663Z,5.28
2023-02-14T13:06:13.278Z,5.70
2023-02-14T13:09:14.635Z,5.15
2023-02-14T13:12:01.477Z,5.18
2023-02-14T13:14:53.451Z,4.93
2023-02-14T13:17:34.656Z,5.45
2023-02-14T13:20:25.862Z,5.25
2023-02-14T13:22:58.422Z,5.40
2023-02-14T13:25:33.561Z,6.10
2023-02-14T13:28:06.065Z,6.30
2023-02-14T13:30:36.988Z,6.13
2023-02-14T13:33:15.943Z,5.90
2023-02-14T13:35:46.157Z,5.63
2023-02-14T13:38:18.486Z,5.50
2023-02-14T13:40:54.035Z,6.15
2023-02-14T13:43:58.692Z,6.30
2023-02-14T13:46:53.217Z,6.10
2023-02-14T13:50:13.431Z,5.90
2023-02-14T13:52:55.619Z,5.43
2023-02-14T13:55:35.482Z,5.78
2023-02-14T13:58:06.742Z,6.10
2023-02-14T14:00:42.230Z,5.78
2023-02-14T14:03:59.342Z,6.30
2023-02-14T14:06:28.256Z,6.13
2023-02-14T14:15:34.464Z,6.03
2023-02-14T14:43:33.735Z,5.75
2023-02-14T14:46:05.106Z,6.68
2023-02-14T14:48:39.044Z,6.68
2023-02-14T14:51:09.765Z,6.15
2023-02-14T14:53:45.306Z,6.65
2023-02-14T14:56:15.137Z,7.18
2023-02-14T14:58:44.699Z,6.47
2023-02-14T15:01:21.445Z,6.10
2023-02-14T15:03:49.867Z,5.80
2023-02-14T15:06:21.251Z,6.35
2023-02-14T15:08:51.403Z,6.32
2023-02-14T15:11:42.828Z,6.20
2023-02-14T15:14:20.242Z,6.30
2023-02-14T15:16:52.095Z,6.60
2023-02-14T15:19:31.378Z,6.07
2023-02-14T15:21:59.855Z,6.65
2023-02-14T15:24:30.444Z,6.47
2023-02-14T15:26:59.051Z,6.28
2023-02-14T15:29:31.707Z,6.57
2023-02-14T15:32:03.459Z,6.00
2023-02-14T15:34:35.966Z,6.55
2023-02-14T15:37:06.605Z,6.13
2023-02-14T15:39:41.442Z,6.38
2023-02-14T15:42:25.782Z,5.93
2023-02-14T15:45:23.773Z,6.35
2023-02-14T15:47:54.768Z,5.47
2023-02-14T15:50:27.683Z,5.85
2023-02-14T15:53:03.561Z,6.78
2023-02-14T15:55:33.447Z,6.25
2023-02-14T15:58:05.724Z,6.13
2023-02-14T16:00:36.723Z,6.05
2023-02-14T16:03:09.984Z,6.53
2023-02-14T16:05:38.667Z,5.60
2023-02-14T16:08:24.058Z,6.20
2023-02-14T16:11:02.974Z,6.53
2023-02-14T16:13:34.945Z,6.60
2023-02-14T16:16:08.138Z,6.32
2023-02-14T16:18:40.250Z,6.20
2023-02-14T16:21:19.168Z,6.20
2023-02-14T16:24:10.633Z,5.90
2023-02-14T16:26:40.984Z,6.18
2023-02-14T16:29:13.080Z,6.78
2023-02-14T16:32:06.198Z,5.85
2023-02-14T16:34:35.870Z,6.20
2023-02-14T16:37:09.490Z,5.97
2023-02-14T16:39:40.685Z,6.13
2023-02-14T16:42:17.591Z,6.05
2023-02-14T16:44:46.331Z,5.85
2023-02-14T16:47:19.001Z,6.18
2023-02-14T16:49:47.522Z,5.80
2023-02-14T16:52:23.472Z,6.18
2023-02-14T16:54:52.142Z,6.13
2023-02-14T16:57:25.851Z,6.18
2023-02-14T16:59:56.794Z,6.03
2023-02-14T17:02:28.244Z,6.13
2023-02-14T17:05:02.528Z,5.95
2023-02-14T17:07:34.041Z,6.43
2023-02-14T17:10:08.522Z,6.60
2023-02-14T17:12:41.437Z,5.82
2023-02-14T17:15:16.443Z,5.57
2023-02-14T17:17:48.456Z,5.93
2023-02-14T17:20:19.444Z,6.43
2023-02-14T17:22:48.042Z,6.25
2023-02-14T17:25:16.310Z,6.05
2023-02-14T17:27:46.191Z,6.25
2023-02-14T17:30:16.480Z,6.65
2023-02-14T17:32:46.355Z,5.93
2023-02-14T17:35:14.591Z,5.90
2023-02-14T17:37:43.696Z,5.78
2023-02-14T17:40:14.498Z,6.57
2023-02-14T17:42:43.118Z,6.63
2023-02-14T17:45:12.673Z,5.47
2023-02-14T17:47:43.204Z,6.38
2023-02-14T17:50:14.588Z,6.22
2023-02-14T17:52:43.273Z,6.40
2023-02-14T17:55:12.253Z,5.45
2023-02-14T17:57:41.488Z,6.00
2023-02-14T18:00:12.181Z,5.97
2023-02-14T18:02:43.274Z,6.28
2023-02-14T18:05:13.255Z,6.05
2023-02-14T18:07:41.543Z,5.35
2023-02-14T18:10:10.513Z,5.95
2023-02-14T18:12:38.871Z,5.38
2023-02-14T18:15:07.853Z,6.05
2023-02-14T18:17:36.133Z,6.03
2023-02-14T18:20:05.313Z,6.28
2023-02-14T18:22:34.878Z,6.32
2023-02-14T18:25:03.030Z,7.03
2023-02-14T18:27:32.287Z,6.43
2023-02-14T18:30:00.594Z,6.90
2023-02-14T18:32:28.861Z,6.93
2023-02-14T18:34:57.082Z,6.38
2023-02-14T18:37:25.354Z,7.95
2023-02-14T18:39:54.925Z,7.63
2023-02-14T18:42:23.274Z,6.57
2023-02-14T18:44:51.370Z,7.53
2023-02-14T18:47:19.609Z,7.63
2023-02-14T18:49:48.003Z,6.90
2023-02-14T18:52:21.264Z,6.72
2023-02-14T18:54:49.630Z,7.38
2023-02-14T18:57:19.276Z,6.90
2023-02-14T18:59:47.437Z,6.60
2023-02-14T19:02:15.713Z,6.57
2023-02-14T19:04:44.042Z,6.75
2023-02-14T19:07:12.881Z,7.93
2023-02-14T19:09:43.100Z,10.48
2023-02-14T19:12:11.897Z,11.90
2023-02-14T19:14:41.654Z,12.37
2023-02-14T19:17:09.950Z,10.30
2023-02-14T19:19:42.956Z,8.27
2023-02-14T19:22:19.150Z,8.27
2023-02-14T19:24:55.816Z,7.40
2023-02-14T19:27:41.863Z,6.47
2023-02-14T19:30:33.438Z,6.73
2023-02-14T19:33:02.246Z,6.70
2023-02-14T19:35:32.686Z,8.03
2023-02-14T19:38:04.498Z,8.27
2023-02-14T19:40:52.817Z,7.63
2023-02-14T19:43:30.469Z,6.10
2023-02-14T19:46:09.315Z,6.77
2023-02-14T19:48:38.294Z,7.37
2023-02-14T19:51:14.176Z,6.53
2023-02-14T19:56:40.274Z,6.80
2023-02-14T19:59:22.685Z,7.07
2023-02-14T20:02:00.866Z,6.50
2023-02-14T20:04:45.914Z,6.43
2023-02-14T20:07:19.632Z,7.50
2023-02-14T20:09:50.341Z,7.33
2023-02-14T20:12:30.471Z,6.83
2023-02-14T20:15:02.688Z,7.27
2023-02-14T20:17:38.393Z,6.57
2023-02-14T20:20:26.601Z,6.80
2023-02-14T20:23:10.692Z,7.10
2023-02-14T20:25:42.594Z,6.50
2023-02-14T20:28:10.628Z,6.97
2023-02-14T20:30:40.126Z,6.33
2023-02-14T20:33:09.603Z,7.40
2023-02-14T20:35:40.675Z,7.43
2023-02-14T20:38:08.926Z,7.10
2023-02-14T20:40:40.010Z,6.90
2023-02-14T20:43:08.093Z,7.00
2023-02-14T20:45:36.187Z,7.07
2023-02-14T20:48:06.803Z,6.43
2023-02-14T20:50:36.307Z,7.13
2023-02-14T20:53:04.423Z,6.57
2023-02-14T20:55:32.463Z,6.33
2023-02-14T20:58:02.364Z,7.30
2023-02-14T21:00:30.726Z,6.60
2023-02-14T21:02:59.940Z,6.43
2023-02-14T21:05:28.731Z,6.43
2023-02-14T21:07:58.346Z,6.43
2023-02-14T21:10:27.523Z,6.03
2023-02-14T21:12:55.924Z,8.30
2023-02-14T21:15:24.007Z,6.20
2023-02-14T21:17:52.062Z,6.80
2023-02-14T21:20:20.501Z,6.37
2023-02-14T21:22:48.558Z,5.53
2023-02-14T21:25:18.118Z,5.73
2023-02-14T21:27:46.424Z,5.57
2023-02-14T21:30:15.378Z,6.77
2023-02-14T21:32:43.486Z,6.93
2023-02-14T21:35:11.534Z,8.53
2023-02-14T21:37:39.623Z,7.27
2023-02-14T21:40:09.261Z,6.50
2023-02-14T21:42:38.681Z,6.27
2023-02-14T21:45:25.132Z,7.03
2023-02-14T21:48:07.225Z,6.53
2023-02-14T21:50:35.276Z,7.10
2023-02-14T21:53:03.367Z,6.40
2023-02-14T21:55:31.380Z,6.13
2023-02-14T21:58:00.924Z,6.07
2023-02-14T22:00:28.991Z,6.20
2023-02-14T22:02:57.261Z,6.20
2023-02-14T22:05:26.637Z,6.87
2023-02-14T22:07:54.715Z,7.13
2023-02-14T22:10:22.781Z,6.97
2023-02-14T22:12:50.817Z,6.87
2023-02-14T22:15:20.274Z,6.67
2023-02-14T22:17:48.314Z,7.90
2023-02-14T22:20:16.700Z,7.27
2023-02-14T22:22:44.727Z,7.53
2023-02-14T22:25:12.829Z,9.10
2023-02-14T22:27:41.231Z,10.83
2023-02-14T22:30:10.209Z,9.33
2023-02-14T22:32:39.708Z,8.33
2023-02-14T22:35:08.933Z,8.20
2023-02-14T22:37:36.953Z,8.07
2023-02-14T22:40:06.152Z,7.67
2023-02-14T22:42:34.281Z,7.13
2023-02-14T22:45:02.345Z,7.40
2023-02-14T22:47:32.082Z,7.97
2023-02-14T22:50:01.673Z,6.57
2023-02-14T22:52:29.782Z,7.10
2023-02-14T22:54:57.958Z,7.93
2023-02-14T22:57:26.120Z,7.77
2023-02-14T22:59:54.298Z,9.27
2023-02-14T23:02:22.374Z,8.87
2023-02-14T23:04:51.619Z,7.67
2023-02-14T23:07:21.032Z,9.67
2023-02-14T23:09:50.754Z,8.67
2023-02-14T23:12:32.781Z,8.03
2023-02-14T23:15:18.529Z,7.80
2023-02-14T23:18:04.532Z,7.00
2023-02-14T23:20:50.230Z,7.60
2023-02-14T23:23:19.638Z,7.67
2023-02-14T23:25:47.706Z,6.80
2023-02-14T23:28:15.750Z,7.60
2023-02-14T23:30:43.771Z,6.47
2023-02-14T23:33:11.837Z,6.57
2023-02-14T23:35:39.862Z,6.63
2023-02-14T23:38:08.066Z,7.33
2023-02-14T23:40:51.386Z,8.10
2023-02-14T23:43:19.476Z,8.53
2023-02-14T23:45:47.675Z,9.37
2023-02-14T23:48:15.804Z,7.57
2023-02-14T23:50:43.860Z,8.40
2023-02-14T23:53:11.941Z,7.87
2023-02-14T23:55:41.275Z,7.43
2023-02-14T23:58:09.313Z,6.97
